Time;durP1;ratioP1;P1;durP2;ratioP2;P2;SDS_P1;SDS_P2;PMS_P1;PMS_P2;Temp;Humidity;BMP_temperature;BMP_pressure;BME280_temperature;BME280_humidity;BME280_pressure;Samples;Min_cycle;Max_cycle;Signal;HPM_P1;HPM_P2
2022/08/10 00:00:19;;;;;;;10.30;4.20;;;;;19.80;97786.20;;;;111083;1247;41481;-65
2022/08/10 00:02:15;;;;;;;7.20;3.10;;;;;19.80;97786.60;;;;111074;1247;41498;-65
2022/08/10 00:04:44;;;;;;;6.40;2.80;;;;;19.80;97783.80;;;;111080;1247;41885;-65
2022/08/10 00:07:13;;;;;;;8.30;3.60;;;;;19.80;97784.40;;;;111094;1249;42826;-64
2022/08/10 00:09:43;;;;;;;8.50;3.80;;;;;19.80;97780.40;;;;111101;1247;41620;-64
2022/08/10 00:12:18;;;;;;;9.10;3.70;;;;;19.80;97779.60;;;;111042;1247;41256;-65
2022/08/10 00:14:48;;;;;;;8.60;3.80;;;;;19.80;97777.00;;;;111032;1247;41143;-65
2022/08/10 00:17:18;;;;;;;7.50;2.80;;;;;19.80;97776.20;;;;110985;1247;41156;-64
2022/08/10 00:19:47;;;;;;;10.30;3.90;;;;;19.80;97778.80;;;;111041;1248;41402;-65
2022/08/10 00:22:30;;;;;;;7.90;3.50;;;;;19.80;97779.20;;;;111063;1247;41246;-65
2022/08/10 00:25:01;;;;;;;13.10;4.90;;;;;19.80;97780.20;;;;111076;1247;41245;-65
2022/08/10 00:27:31;;;;;;;10.20;4.70;;;;;19.80;97780.20;;;;111109;1247;41616;-65
2022/08/10 00:30:20;;;;;;;8.80;4.30;;;;;19.70;97781.40;;;;111056;1247;41137;-65
2022/08/10 00:32:49;;;;;;;10.10;4.80;;;;;19.70;97783.00;;;;111054;1247;41128;-65
2022/08/10 00:35:18;;;;;;;9.40;4.30;;;;;19.60;97782.20;;;;111070;1247;42278;-65
2022/08/10 00:37:48;;;;;;;8.10;3.70;;;;;19.50;97777.60;;;;111036;1247;41248;-65
2022/08/10 00:40:24;;;;;;;8.80;4.30;;;;;19.50;97777.40;;;;111014;1247;41724;-63
2022/08/10 00:43:06;;;;;;;10.40;3.90;;;;;19.50;97780.80;;;;111099;1247;41413;-63
2022/08/10 00:45:35;;;;;;;7.80;3.60;;;;;19.50;97781.40;;;;111059;1248;42395;-65
2022/08/10 00:48:05;;;;;;;7.80;3.40;;;;;19.56;97780.60;;;;111048;1247;41975;-64
2022/08/10 00:50:34;;;;;;;7.10;3.20;;;;;19.58;97776.20;;;;111027;1248;42396;-65
2022/08/10 00:53:04;;;;;;;8.80;3.10;;;;;19.60;97770.00;;;;111065;1248;42515;-64
2022/08/10 00:55:34;;;;;;;6.20;2.60;;;;;19.60;97760.00;;;;111054;1246;41165;-65
2022/08/10 00:58:24;;;;;;;8.50;3.20;;;;;19.60;97761.60;;;;111043;1247;41246;-65
2022/08/10 01:00:54;;;;;;;9.50;4.30;;;;;19.60;97761.80;;;;111066;1247;42841;-64
2022/08/10 01:03:23;;;;;;;9.60;4.10;;;;;19.62;97759.60;;;;110834;1248;41945;-64
2022/08/10 01:06:29;;;;;;;16.00;4.60;;;;;19.62;97762.00;;;;110853;1250;41262;-65
2022/08/10 01:09:15;;;;;;;8.30;4.10;;;;;19.60;97763.40;;;;110891;1249;41150;-65
2022/08/10 01:12:29;;;;;;;9.80;4.50;;;;;19.60;97765.40;;;;110707;1249;41925;-65
2022/08/10 01:15:14;;;;;;;10.80;4.80;;;;;19.50;97759.80;;;;110733;1250;41142;-64
2022/08/10 01:18:04;;;;;;;9.90;4.10;;;;;19.50;97756.00;;;;111017;1248;41140;-65
2022/08/10 01:20:46;;;;;;;7.50;3.70;;;;;19.50;97755.20;;;;111000;1248;41584;-64
2022/08/10 01:23:45;;;;;;;9.60;4.70;;;;;19.50;97756.00;;;;111022;1250;41152;-64
2022/08/10 01:26:33;;;;;;;11.10;4.50;;;;;19.50;97754.00;;;;110866;1247;41155;-64
2022/08/10 01:29:35;;;;;;;10.90;4.50;;;;;19.50;97760.00;;;;110797;1249;41258;-64
2022/08/10 01:32:06;;;;;;;10.20;4.90;;;;;19.50;97758.40;;;;110619;1250;42503;-64
2022/08/10 01:34:48;;;;;;;9.90;4.10;;;;;19.50;97759.80;;;;110704;1250;41330;-65
2022/08/10 01:37:22;;;;;;;9.00;3.90;;;;;19.50;97762.00;;;;111033;1247;41609;-64
2022/08/10 01:39:56;;;;;;;8.60;4.00;;;;;19.50;97757.80;;;;111005;1248;41705;-64
2022/08/10 01:42:28;;;;;;;8.40;3.90;;;;;19.50;97761.00;;;;110668;1250;41703;-64
2022/08/10 01:45:02;;;;;;;8.80;4.20;;;;;19.50;97760.80;;;;110801;1250;41606;-65
2022/08/10 01:50:49;;;;;;;7.70;3.60;;;;;19.50;97757.40;;;;110769;1249;41140;-64
2022/08/10 01:53:36;;;;;;;7.50;3.40;;;;;19.50;97752.40;;;;111009;1248;41133;-65
2022/08/10 01:56:12;;;;;;;7.10;3.20;;;;;19.52;97754.80;;;;111028;1249;41945;-65
2022/08/10 01:58:43;;;;;;;7.20;3.20;;;;;19.56;97761.80;;;;110790;1250;41152;-65
2022/08/10 02:01:14;;;;;;;6.50;2.90;;;;;19.60;97760.20;;;;110779;1250;41306;-64
2022/08/10 02:03:49;;;;;;;9.10;3.90;;;;;19.60;97756.80;;;;110946;1248;41183;-65
2022/08/10 02:06:36;;;;;;;11.20;3.40;;;;;19.60;97755.80;;;;110942;1248;41249;-65
2022/08/10 02:09:07;;;;;;;8.10;3.30;;;;;19.60;97754.40;;;;110827;1250;41140;-64
2022/08/10 02:11:37;;;;;;;7.50;3.10;;;;;19.60;97756.20;;;;110792;1250;41674;-65
2022/08/10 02:14:32;;;;;;;7.40;3.50;;;;;19.60;97758.40;;;;110972;1250;41142;-65
2022/08/10 02:17:16;;;;;;;9.90;3.40;;;;;19.60;97755.40;;;;110989;1248;42378;-65
2022/08/10 02:20:13;;;;;;;12.40;3.70;;;;;19.60;97751.00;;;;110675;1250;41498;-65
2022/08/10 02:22:44;;;;;;;6.60;3.10;;;;;19.60;97748.20;;;;110991;1248;41140;-65
2022/08/10 02:25:14;;;;;;;7.00;3.20;;;;;19.60;97742.40;;;;111114;1247;41130;-65
2022/08/10 02:28:05;;;;;;;9.10;4.30;;;;;19.60;97741.60;;;;110951;1250;41963;-65
2022/08/10 02:30:36;;;;;;;9.60;3.90;;;;;19.60;97738.40;;;;110780;1249;41179;-65
2022/08/10 02:33:06;;;;;;;7.50;3.20;;;;;19.60;97737.20;;;;111051;1248;42053;-65
2022/08/10 02:35:37;;;;;;;7.00;3.20;;;;;19.60;97740.20;;;;111044;1248;41543;-65
2022/08/10 02:38:31;;;;;;;6.10;2.80;;;;;19.60;97737.40;;;;111078;1247;41193;-65
2022/08/10 02:41:40;;;;;;;6.80;2.90;;;;;19.60;97734.40;;;;110934;1248;41826;-64
2022/08/10 02:44:41;;;;;;;6.30;2.80;;;;;19.60;97735.60;;;;111095;1247;41144;-64
2022/08/10 02:47:34;;;;;;;7.80;3.10;;;;;19.60;97737.60;;;;111105;1248;41249;-65
2022/08/10 02:50:28;;;;;;;6.20;2.70;;;;;19.60;97734.80;;;;110993;1247;41146;-65
2022/08/10 02:53:18;;;;;;;7.70;3.10;;;;;19.60;97738.20;;;;111112;1249;41155;-66
2022/08/10 02:56:11;;;;;;;6.10;2.70;;;;;19.60;97738.00;;;;111074;1249;42680;-65
2022/08/10 02:58:43;;;;;;;6.50;2.80;;;;;19.60;97741.60;;;;110947;1250;41136;-64
2022/08/10 03:01:18;;;;;;;7.30;3.00;;;;;19.60;97740.80;;;;111013;1248;41615;-64
2022/08/10 03:04:16;;;;;;;7.40;3.00;;;;;19.60;97740.60;;;;111058;1247;41126;-64
2022/08/10 03:06:55;;;;;;;6.50;3.10;;;;;19.60;97743.00;;;;109667;1250;1830543;-65
2022/08/10 03:09:28;;;;;;;7.20;3.40;;;;;19.60;97745.80;;;;111084;1247;41392;-65
2022/08/10 03:11:58;;;;;;;7.70;3.60;;;;;19.60;97747.00;;;;111032;1247;41304;-65
2022/08/10 03:14:49;;;;;;;7.80;3.30;;;;;19.60;97745.40;;;;111047;1247;41152;-64
2022/08/10 03:17:19;;;;;;;7.90;3.50;;;;;19.58;97748.40;;;;111089;1247;41249;-66
2022/08/10 03:19:50;;;;;;;6.90;3.30;;;;;19.54;97755.00;;;;111041;1247;41886;-64
2022/08/10 03:22:40;;;;;;;7.40;3.00;;;;;19.50;97749.20;;;;111065;1247;41266;-65
2022/08/10 03:25:11;;;;;;;6.00;2.70;;;;;19.50;97758.00;;;;111164;1248;42725;-65
2022/08/10 03:27:42;;;;;;;6.50;2.80;;;;;19.50;97755.20;;;;110990;1248;41163;-65
2022/08/10 03:30:12;;;;;;;9.30;3.70;;;;;19.50;97750.80;;;;111051;1248;41136;-65
2022/08/10 03:32:58;;;;;;;7.50;3.80;;;;;19.50;97750.80;;;;110769;1250;41257;-66
2022/08/10 03:35:28;;;;;;;8.10;4.30;;;;;19.50;97755.20;;;;111052;1248;41718;-65
2022/08/10 03:37:58;;;;;;;10.10;5.00;;;;;19.50;97753.80;;;;111126;1248;41654;-65
2022/08/10 03:40:28;;;;;;;;;;;;;19.50;97757.00;;;;111070;1249;41153;-64
2022/08/10 03:43:16;;;;;;;7.80;3.40;;;;;19.40;97754.80;;;;111042;1249;41124;-65
2022/08/10 03:45:52;;;;;;;6.50;3.10;;;;;19.48;97756.20;;;;111136;1247;41310;-65
2022/08/10 03:48:25;;;;;;;6.10;2.90;;;;;19.50;97756.20;;;;110869;1250;41155;-65
2022/08/10 03:51:00;;;;;;;7.00;3.20;;;;;19.50;97757.20;;;;111103;1247;41141;-65
2022/08/10 03:53:30;;;;;;;7.90;3.50;;;;;19.50;97755.60;;;;110867;1248;41179;-64
2022/08/10 03:56:20;;;;;;;7.70;2.90;;;;;19.50;97753.20;;;;111158;1250;41262;-66
2022/08/10 03:58:59;;;;;;;8.30;3.20;;;;;19.50;97764.40;;;;110823;1251;41331;-63
2022/08/10 04:01:29;;;;;;;;;;;;;19.54;97769.80;;;;111009;1250;41367;-65
2022/08/10 04:04:20;;;;;;;5.30;2.50;;;;;19.50;97768.40;;;;110770;1252;41200;-65
2022/08/10 04:06:56;;;;;;;6.30;3.00;;;;;19.60;97772.80;;;;110603;1250;41703;-65
2022/08/10 04:09:31;;;;;;;10.30;4.40;;;;;19.60;97770.40;;;;110637;1249;41606;-64
2022/08/10 04:12:20;;;;;;;8.20;4.00;;;;;19.60;97773.80;;;;110576;1250;41163;-64
2022/08/10 04:14:51;;;;;;;9.00;4.00;;;;;19.60;97771.80;;;;110833;1250;42627;-64
2022/08/10 04:17:23;;;;;;;11.80;4.40;;;;;19.60;97776.00;;;;110755;1250;41260;-64
2022/08/10 04:20:38;;;;;;;8.80;3.90;;;;;19.60;97774.40;;;;111167;1250;41472;-65
2022/08/10 04:23:10;;;;;;;9.60;3.30;;;;;19.60;97777.60;;;;110877;1250;41154;-65
2022/08/10 04:25:40;;;;;;;6.80;3.00;;;;;19.60;97777.60;;;;110926;1250;41610;-64
2022/08/10 04:28:10;;;;;;;7.20;3.10;;;;;19.70;97775.00;;;;110710;1250;41252;-65
2022/08/10 04:30:39;;;;;;;6.10;2.90;;;;;19.70;97774.20;;;;110800;1250;41146;-64
2022/08/10 04:33:10;;;;;;;8.50;3.00;;;;;19.70;97773.80;;;;111008;1250;42378;-65
2022/08/10 04:35:38;;;;;;;;;;;;;19.70;97767.60;;;;111186;1250;41514;-65
2022/08/10 04:38:08;;;;;;;6.20;2.70;;;;;19.80;97761.20;;;;110948;1250;42261;-65
2022/08/10 04:40:37;;;;;;;6.10;2.80;;;;;19.80;97761.60;;;;110891;1250;41242;-65
2022/08/10 04:43:07;;;;;;;7.10;3.10;;;;;19.90;97766.20;;;;110954;1250;41151;-64
2022/08/10 04:45:42;;;;;;;6.30;2.90;;;;;19.94;97765.60;;;;110942;1250;41980;-65
2022/08/10 04:48:23;;;;;;;6.20;2.90;;;;;20.00;97763.80;;;;110944;1251;41164;-65
2022/08/10 04:51:16;;;;;;;7.70;3.20;;;;;20.10;97763.00;;;;110737;1249;41148;-65
2022/08/10 04:53:49;;;;;;;6.50;2.80;;;;;20.18;97759.80;;;;110726;1250;41150;-65
2022/08/10 04:56:38;;;;;;;6.90;3.00;;;;;20.20;97759.60;;;;110839;1251;41953;-65
2022/08/10 04:59:08;;;;;;;7.80;3.30;;;;;20.30;97752.80;;;;110802;1250;41124;-65
2022/08/10 05:01:38;;;;;;;7.50;3.40;;;;;20.30;97754.60;;;;110876;1250;41168;-65
2022/08/10 05:04:27;;;;;;;7.60;3.00;;;;;20.40;97759.40;;;;110822;1250;41172;-65
2022/08/10 05:07:01;;;;;;;8.60;3.70;;;;;20.48;97763.20;;;;111108;1247;41139;-65
2022/08/10 05:09:30;;;;;;;9.70;4.40;;;;;20.50;97759.80;;;;111145;1247;42653;-65
2022/08/10 05:12:00;;;;;;;8.70;4.30;;;;;20.52;97761.20;;;;111280;1247;41118;-65
2022/08/10 05:14:29;;;;;;;8.70;4.50;;;;;20.52;97758.40;;;;110865;1250;41260;-65
2022/08/10 05:16:58;;;;;;;14.80;5.30;;;;;20.50;97761.60;;;;111206;1247;41273;-65
2022/08/10 05:19:27;;;;;;;9.10;5.30;;;;;20.50;97760.40;;;;111111;1247;41256;-65
2022/08/10 05:22:16;;;;;;;9.40;4.50;;;;;20.50;97762.20;;;;111027;1248;41164;-64
2022/08/10 05:24:45;;;;;;;8.40;4.00;;;;;20.44;97766.80;;;;111109;1250;41264;-65
2022/08/10 05:27:14;;;;;;;7.40;3.30;;;;;20.50;97767.60;;;;111182;1250;41383;-65
2022/08/10 05:29:42;;;;;;;11.90;4.90;;;;;20.50;97770.60;;;;111181;1247;41159;-64
2022/08/10 05:32:11;;;;;;;9.90;4.90;;;;;20.60;97767.60;;;;111291;1247;41154;-63
2022/08/10 05:34:40;;;;;;;11.20;5.70;;;;;20.58;97771.60;;;;111087;1247;41130;-65
2022/08/10 05:37:10;;;;;;;11.50;4.90;;;;;20.60;97771.20;;;;111240;1247;41137;-64
2022/08/10 05:40:01;;;;;;;8.80;4.30;;;;;20.60;97777.80;;;;110954;1248;41156;-65
2022/08/10 05:42:30;;;;;;;9.10;4.30;;;;;20.60;97783.00;;;;111026;1248;41145;-64
2022/08/10 05:44:59;;;;;;;8.00;3.60;;;;;20.56;97784.00;;;;111157;1247;41183;-64
2022/08/10 05:47:29;;;;;;;8.30;3.90;;;;;20.60;97785.60;;;;111105;1248;41135;-65
2022/08/10 05:50:21;;;;;;;8.60;3.80;;;;;20.60;97785.40;;;;111039;1248;41624;-64
2022/08/10 05:52:50;;;;;;;10.50;4.10;;;;;20.60;97792.20;;;;111116;1250;41137;-64
2022/08/10 05:55:20;;;;;;;7.20;3.30;;;;;20.62;97796.20;;;;110972;1250;41149;-65
2022/08/10 05:57:50;;;;;;;8.20;3.80;;;;;20.70;97799.00;;;;111091;1247;41172;-66
2022/08/10 06:00:23;;;;;;;11.30;4.90;;;;;20.70;97800.60;;;;111168;1248;40785;-64
2022/08/10 06:03:07;;;;;;;10.10;4.80;;;;;20.70;97801.00;;;;111101;1250;41177;-65
2022/08/10 06:05:38;;;;;;;9.50;4.90;;;;;20.70;97796.40;;;;110806;1250;42270;-65
2022/08/10 06:08:16;;;;;;;8.10;3.90;;;;;20.70;97798.80;;;;110829;1250;41015;-65
2022/08/10 06:10:46;;;;;;;11.50;5.40;;;;;20.70;97798.80;;;;110899;1247;41302;-67
2022/08/10 06:16:28;;;;;;;9.30;4.20;;;;;20.70;97802.60;;;;110905;1250;41153;-65
2022/08/10 06:18:57;;;;;;;12.00;5.80;;;;;20.70;97806.20;;;;110834;1250;41147;-64
2022/08/10 06:21:29;;;;;;;8.20;4.10;;;;;20.80;97805.80;;;;110917;1250;41156;-66
2022/08/10 06:23:58;;;;;;;10.50;6.00;;;;;20.78;97805.60;;;;110972;1250;42306;-65
2022/08/10 06:26:27;;;;;;;11.70;4.90;;;;;20.70;97801.20;;;;110918;1250;41561;-65
2022/08/10 06:28:59;;;;;;;10.50;5.20;;;;;20.60;97798.20;;;;110722;1249;41143;-66
2022/08/10 06:31:33;;;;;;;9.80;4.60;;;;;20.60;97803.00;;;;111068;1249;41266;-66
2022/08/10 06:34:26;;;;;;;10.10;4.60;;;;;20.50;97803.60;;;;110919;1250;42289;-66
2022/08/10 06:36:58;;;;;;;11.70;6.10;;;;;20.50;97801.40;;;;110894;1251;41446;-65
2022/08/10 06:39:27;;;;;;;10.20;4.70;;;;;20.50;97806.60;;;;110775;1250;41153;-65
2022/08/10 06:42:09;;;;;;;11.50;7.00;;;;;20.60;97808.20;;;;110861;1249;41723;-65
2022/08/10 06:44:56;;;;;;;10.40;5.20;;;;;20.60;97805.80;;;;110904;1249;41509;-67
2022/08/10 06:47:49;;;;;;;13.70;6.00;;;;;20.52;97812.40;;;;110952;1250;41143;-66
2022/08/10 06:50:24;;;;;;;10.30;5.20;;;;;20.50;97813.20;;;;110771;1250;41137;-65
2022/08/10 06:53:05;;;;;;;11.30;5.30;;;;;20.40;97813.60;;;;111028;1250;40756;-66
2022/08/10 06:55:34;;;;;;;11.20;5.20;;;;;20.40;97820.40;;;;110823;1250;42115;-66
2022/08/10 06:58:20;;;;;;;10.20;5.30;;;;;20.50;97818.60;;;;110986;1250;41144;-66
2022/08/10 07:00:51;;;;;;;10.10;4.50;;;;;20.50;97814.00;;;;110653;1251;41143;-68
2022/08/10 07:03:25;;;;;;;9.50;4.60;;;;;20.50;97818.20;;;;110996;1248;41261;-68
2022/08/10 07:05:54;;;;;;;8.40;4.10;;;;;20.50;97820.80;;;;110983;1249;41257;-69
2022/08/10 07:08:24;;;;;;;9.50;4.90;;;;;20.60;97821.60;;;;110893;1250;41940;-68
2022/08/10 07:10:53;;;;;;;10.60;5.30;;;;;20.60;97815.40;;;;111125;1247;41924;-68
2022/08/10 07:13:22;;;;;;;13.00;6.10;;;;;20.60;97809.60;;;;110912;1250;41294;-68
2022/08/10 07:16:12;;;;;;;9.40;4.00;;;;;20.60;97811.40;;;;110754;1249;41156;-68
2022/08/10 07:18:43;;;;;;;8.90;4.00;;;;;20.58;97816.80;;;;111115;1248;41270;-67
2022/08/10 07:21:13;;;;;;;8.50;3.70;;;;;20.54;97816.20;;;;110994;1248;41174;-68
2022/08/10 07:23:44;;;;;;;9.80;4.20;;;;;20.50;97813.60;;;;110794;1250;42144;-68
2022/08/10 07:26:28;;;;;;;10.30;4.10;;;;;20.50;97813.40;;;;111276;1248;41614;-68
2022/08/10 07:28:56;;;;;;;;;;;;;20.50;97817.40;;;;110956;1250;41159;-66
2022/08/10 07:31:25;;;;;;;10.20;4.40;;;;;20.40;97818.60;;;;111034;1248;41142;-67
2022/08/10 07:34:16;;;;;;;8.50;4.10;;;;;20.32;97820.00;;;;111100;1248;41152;-67
2022/08/10 07:36:51;;;;;;;8.00;4.00;;;;;20.30;97821.80;;;;111013;1249;41326;-67
2022/08/10 07:39:21;;;;;;;8.80;4.00;;;;;20.32;97826.80;;;;111148;1248;41147;-67
2022/08/10 07:42:12;;;;;;;9.10;4.40;;;;;20.30;97829.00;;;;110999;1249;41140;-68
2022/08/10 07:44:42;;;;;;;7.40;3.10;;;;;20.40;97828.60;;;;111173;1249;41883;-68
2022/08/10 07:47:14;;;;;;;7.30;3.00;;;;;20.40;97830.20;;;;111252;1247;41144;-68
2022/08/10 07:49:44;;;;;;;7.00;3.30;;;;;20.50;97831.60;;;;110706;1250;41776;-69
2022/08/10 07:52:13;;;;;;;10.60;3.10;;;;;20.50;97831.80;;;;111322;1247;41155;-68
2022/08/10 07:54:44;;;;;;;6.40;2.50;;;;;20.56;97828.00;;;;111134;1249;41252;-69
2022/08/10 07:57:24;;;;;;;5.90;2.30;;;;;20.60;97827.40;;;;111069;1248;41545;-69
2022/08/10 08:00:04;;;;;;;6.10;2.60;;;;;20.60;97821.80;;;;111178;1249;41252;-70
2022/08/10 08:02:51;;;;;;;6.00;2.40;;;;;20.70;97828.00;;;;111136;1250;41193;-73
2022/08/10 08:05:21;;;;;;;7.80;2.50;;;;;20.70;97829.60;;;;110832;1250;41248;-71
2022/08/10 08:08:13;;;;;;;4.60;2.10;;;;;20.70;97835.40;;;;111085;1250;41341;-72
2022/08/10 08:10:42;;;;;;;7.40;2.40;;;;;20.60;97835.40;;;;111029;1250;41688;-73
2022/08/10 08:13:13;;;;;;;4.80;2.10;;;;;20.60;97834.00;;;;111034;1250;41376;-72
2022/08/10 08:15:52;;;;;;;7.80;2.60;;;;;20.52;97838.40;;;;111117;1249;41329;-73
2022/08/10 08:18:46;;;;;;;7.40;2.30;;;;;20.50;97842.20;;;;111032;1248;41251;-72
2022/08/10 08:21:36;;;;;;;5.00;2.30;;;;;20.40;97848.20;;;;111018;1248;41893;-73
2022/08/10 08:24:25;;;;;;;5.50;2.40;;;;;20.40;97849.40;;;;110941;1247;41174;-73
2022/08/10 08:27:02;;;;;;;5.90;2.30;;;;;20.40;97852.00;;;;110746;1250;42377;-74
2022/08/10 08:29:34;;;;;;;7.20;2.20;;;;;20.30;97848.40;;;;110992;1250;41142;-74
2022/08/10 08:32:04;;;;;;;5.30;2.20;;;;;20.40;97849.00;;;;111070;1247;41265;-76
2022/08/10 08:34:36;;;;;;;6.30;2.60;;;;;20.40;97850.20;;;;110797;1250;42148;-75
2022/08/10 08:37:08;;;;;;;5.20;2.20;;;;;20.40;97851.40;;;;110913;1250;41293;-73
2022/08/10 08:39:37;;;;;;;4.10;2.00;;;;;20.30;97847.80;;;;111057;1250;41250;-74
2022/08/10 08:42:24;;;;;;;5.70;2.30;;;;;20.24;97848.40;;;;110836;1250;41602;-75
2022/08/10 08:45:13;;;;;;;5.30;2.10;;;;;20.20;97846.60;;;;111264;1249;41833;-75
2022/08/10 08:48:18;;;;;;;4.40;1.90;;;;;20.20;97849.00;;;;111049;1247;41608;-72
2022/08/10 08:51:06;;;;;;;5.20;2.10;;;;;20.20;97854.00;;;;111035;1249;41989;-69
2022/08/10 08:53:50;;;;;;;6.30;2.20;;;;;20.30;97859.80;;;;111080;1247;41594;-69
2022/08/10 08:56:45;;;;;;;5.90;2.40;;;;;20.30;97860.00;;;;110843;1249;41143;-74
2022/08/10 08:59:39;;;;;;;4.30;2.00;;;;;20.22;97859.40;;;;111106;1248;41251;-74
2022/08/10 09:02:14;;;;;;;;;;;;;20.20;97856.00;;;;111097;1247;41141;-77
2022/08/10 09:05:04;;;;;;;4.80;2.00;;;;;20.20;97855.40;;;;111090;1248;41374;-77
2022/08/10 09:07:57;;;;;;;5.40;2.30;;;;;20.20;97851.80;;;;111011;1248;41212;-77
2022/08/10 09:10:52;;;;;;;5.00;2.10;;;;;20.20;97853.20;;;;111095;1249;41468;-75
2022/08/10 09:13:28;;;;;;;6.10;2.10;;;;;20.30;97860.60;;;;111008;1249;42284;-76
2022/08/10 09:16:08;;;;;;;3.60;1.70;;;;;20.30;97861.00;;;;111058;1247;41149;-75
2022/08/10 09:18:46;;;;;;;3.40;1.60;;;;;20.40;97867.80;;;;111111;1247;41145;-76
2022/08/10 09:21:21;;;;;;;2.60;1.60;;;;;20.50;97868.00;;;;111080;1247;41974;-76
2022/08/10 09:24:04;;;;;;;3.60;1.60;;;;;20.60;97870.80;;;;111071;1247;42418;-75
2022/08/10 09:26:55;;;;;;;4.50;1.60;;;;;20.60;97868.40;;;;110805;1250;41159;-76
2022/08/10 09:29:30;;;;;;;3.40;1.70;;;;;20.60;97867.80;;;;111088;1247;41976;-76
2022/08/10 09:32:10;;;;;;;3.60;1.80;;;;;20.60;97863.60;;;;110822;1250;41255;-76
2022/08/10 09:35:30;;;;;;;4.30;1.90;;;;;20.50;97863.80;;;;111024;1248;42120;-76
2022/08/10 09:38:35;;;;;;;4.70;2.00;;;;;20.50;97864.60;;;;111104;1247;41253;-76
2022/08/10 09:41:32;;;;;;;4.90;2.00;;;;;20.40;97865.00;;;;111068;1247;41264;-76
2022/08/10 09:44:13;;;;;;;5.50;2.30;;;;;20.30;97861.60;;;;111025;1248;41146;-76
2022/08/10 09:47:03;;;;;;;3.40;1.80;;;;;20.30;97860.80;;;;111078;1247;41556;-76
2022/08/10 09:50:02;;;;;;;5.10;2.00;;;;;20.30;97859.40;;;;111051;1249;41594;-76
2022/08/10 09:53:09;;;;;;;3.10;1.60;;;;;20.40;97856.60;;;;111090;1247;42504;-76
2022/08/10 09:56:02;;;;;;;3.50;1.70;;;;;20.58;97860.40;;;;111100;1249;41140;-76
2022/08/10 09:59:06;;;;;;;4.50;1.90;;;;;20.70;97852.60;;;;111048;1248;41137;-76
2022/08/10 10:02:03;;;;;;;3.30;1.80;;;;;20.80;97850.20;;;;111056;1247;41348;-75
2022/08/10 10:04:47;;;;;;;3.20;1.70;;;;;20.82;97855.00;;;;111047;1247;42532;-75
2022/08/10 10:07:24;;;;;;;4.50;1.90;;;;;20.90;97858.40;;;;111066;1249;41152;-76
2022/08/10 10:10:15;;;;;;;2.90;1.50;;;;;21.00;97854.60;;;;111074;1247;41254;-76
2022/08/10 10:13:16;;;;;;;3.90;1.80;;;;;21.26;97851.60;;;;111128;1247;40772;-76
2022/08/10 10:15:59;;;;;;;3.20;1.80;;;;;21.50;97848.00;;;;111066;1249;41131;-77
2022/08/10 10:18:28;;;;;;;2.50;1.50;;;;;21.66;97847.20;;;;111261;1249;41147;-76
2022/08/10 10:21:08;;;;;;;3.30;1.70;;;;;21.88;97845.60;;;;111001;1250;41257;-75
2022/08/10 10:24:03;;;;;;;3.00;1.60;;;;;22.10;97844.60;;;;111058;1250;41388;-77
2022/08/10 10:26:57;;;;;;;4.10;1.70;;;;;22.30;97843.80;;;;111002;1249;41620;-76
2022/08/10 10:29:59;;;;;;;2.90;1.50;;;;;22.50;97847.00;;;;111028;1248;41686;-75
2022/08/10 10:32:37;;;;;;;3.40;1.60;;;;;22.96;97843.80;;;;110706;1250;41157;-75
2022/08/10 10:35:29;;;;;;;4.10;1.80;;;;;23.20;97834.40;;;;110912;1248;41154;-76
2022/08/10 10:37:58;;;;;;;3.40;1.70;;;;;23.86;97830.40;;;;110837;1249;41254;-75
2022/08/10 10:40:52;;;;;;;2.50;1.40;;;;;24.40;97831.00;;;;110766;1247;41257;-75
2022/08/10 10:43:37;;;;;;;2.60;1.40;;;;;24.80;97834.00;;;;111023;1247;41258;-76
2022/08/10 10:46:22;;;;;;;1.80;1.20;;;;;25.52;97827.60;;;;111093;1250;41205;-76
2022/08/10 10:49:25;;;;;;;2.90;1.50;;;;;26.20;97826.20;;;;111090;1247;42059;-77
2022/08/10 10:52:02;;;;;;;3.00;1.60;;;;;26.28;97820.80;;;;110687;1251;41254;-76
2022/08/10 10:54:46;;;;;;;2.20;1.30;;;;;26.10;97822.40;;;;110931;1250;41426;-74
2022/08/10 10:57:19;;;;;;;2.40;1.50;;;;;25.90;97828.00;;;;110856;1250;42129;-74
2022/08/10 10:59:47;;;;;;;1.30;1.00;;;;;25.70;97822.00;;;;111185;1248;41201;-74
2022/08/10 11:02:49;;;;;;;2.50;1.30;;;;;25.26;97823.40;;;;110956;1249;41257;-74
2022/08/10 11:05:36;;;;;;;2.10;1.30;;;;;25.00;97823.80;;;;111036;1249;41137;-74
2022/08/10 11:08:19;;;;;;;1.30;1.20;;;;;24.60;97823.20;;;;111171;1248;41133;-74
2022/08/10 11:10:53;;;;;;;1.40;1.20;;;;;24.50;97816.00;;;;111091;1248;42007;-74
2022/08/10 11:13:53;;;;;;;1.10;1.00;;;;;23.52;97819.40;;;;111038;1247;41155;-74
2022/08/10 11:17:05;;;;;;;1.70;0.90;;;;;24.04;97822.60;;;;111002;1248;41250;-73
2022/08/10 11:20:03;;;;;;;1.20;1.10;;;;;24.52;97819.80;;;;110650;1251;41227;-73
2022/08/10 11:22:44;;;;;;;1.30;1.00;;;;;24.80;97816.60;;;;110849;1250;41127;-74
2022/08/10 11:25:28;;;;;;;2.60;1.20;;;;;24.70;97818.40;;;;111008;1249;41187;-73
2022/08/10 11:28:10;;;;;;;1.60;1.10;;;;;24.70;97821.80;;;;110858;1249;41140;-73
2022/08/10 11:30:46;;;;;;;1.70;1.10;;;;;24.60;97821.40;;;;111012;1248;42510;-72
2022/08/10 11:33:22;;;;;;;1.70;1.10;;;;;24.70;97819.80;;;;110826;1249;41136;-73
2022/08/10 11:36:09;;;;;;;2.90;1.30;;;;;24.70;97818.00;;;;110973;1249;41254;-72
2022/08/10 11:39:04;;;;;;;2.60;1.30;;;;;23.94;97823.60;;;;111008;1250;42318;-72
2022/08/10 11:41:44;;;;;;;1.30;1.10;;;;;23.68;97825.40;;;;110760;1250;42152;-73
2022/08/10 11:44:40;;;;;;;1.30;1.10;;;;;23.80;97822.80;;;;110911;1248;41146;-73
2022/08/10 11:47:16;;;;;;;1.80;1.30;;;;;24.10;97815.40;;;;111068;1250;42365;-72
2022/08/10 11:50:06;;;;;;;1.20;1.10;;;;;24.46;97808.00;;;;111075;1250;41490;-73
2022/08/10 11:53:05;;;;;;;2.90;1.50;;;;;25.04;97812.40;;;;111041;1249;41143;-72
2022/08/10 11:55:35;;;;;;;2.30;1.40;;;;;25.00;97814.20;;;;111112;1249;41167;-73
2022/08/10 11:59:55;;;;;;;1.20;1.10;;;;;25.28;97815.00;;;;111027;1250;41970;-73
2022/08/10 12:00:58;;;;;;;2.00;1.20;;;;;25.16;97817.00;;;;111054;1248;41258;-73
2022/08/10 12:03:31;;;;;;;1.20;1.10;;;;;25.36;97813.00;;;;111070;1250;41266;-72
2022/08/10 12:06:04;;;;;;;2.20;1.20;;;;;25.50;97812.60;;;;111082;1247;41150;-73
2022/08/10 12:08:34;;;;;;;1.40;1.20;;;;;25.52;97810.80;;;;111092;1247;41420;-74
2022/08/10 12:11:28;;;;;;;2.30;1.10;;;;;25.90;97808.60;;;;110762;1249;41719;-73
2022/08/10 12:14:08;;;;;;;2.10;1.20;;;;;26.00;97806.80;;;;111133;1249;41248;-73
2022/08/10 12:16:58;;;;;;;1.60;1.30;;;;;26.20;97800.00;;;;111070;1247;42186;-73
2022/08/10 12:19:37;;;;;;;1.70;1.10;;;;;25.84;97806.00;;;;111101;1247;41132;-73
2022/08/10 12:22:56;;;;;;;2.00;1.20;;;;;26.20;97794.40;;;;111051;1248;41258;-72
2022/08/10 12:25:41;;;;;;;1.30;1.20;;;;;26.40;97793.20;;;;110796;1250;41394;-73
2022/08/10 12:28:42;;;;;;;1.60;1.00;;;;;25.78;97793.40;;;;111019;1247;41245;-72
2022/08/10 12:31:40;;;;;;;1.90;1.10;;;;;25.68;97789.80;;;;111069;1247;41120;-71
2022/08/10 12:34:41;;;;;;;1.00;0.90;;;;;25.98;97789.00;;;;110752;1250;41247;-72
2022/08/10 12:37:11;;;;;;;1.00;0.90;;;;;25.90;97787.60;;;;110790;1250;41199;-73
2022/08/10 12:40:00;;;;;;;1.80;1.10;;;;;25.82;97790.80;;;;111045;1248;41987;-73
2022/08/10 12:43:02;;;;;;;1.40;1.00;;;;;25.66;97782.00;;;;110981;1249;41148;-72
2022/08/10 12:46:00;;;;;;;1.50;1.00;;;;;26.16;97784.80;;;;111017;1248;41241;-73
2022/08/10 12:48:49;;;;;;;1.40;0.90;;;;;26.36;97780.40;;;;111091;1248;41296;-73
2022/08/10 12:51:22;;;;;;;2.50;1.00;;;;;26.72;97781.80;;;;110983;1250;41145;-74
2022/08/10 12:54:09;;;;;;;1.70;1.10;;;;;27.02;97777.60;;;;110742;1250;41352;-73
2022/08/10 12:56:44;;;;;;;2.20;1.10;;;;;27.16;97772.00;;;;111040;1250;41149;-74
2022/08/10 12:59:14;;;;;;;1.70;1.00;;;;;27.10;97770.60;;;;111031;1250;41586;-73
2022/08/10 13:01:45;;;;;;;0.90;0.90;;;;;26.46;97772.20;;;;111041;1250;42371;-74
2022/08/10 13:04:35;;;;;;;1.70;1.10;;;;;26.20;97776.20;;;;110709;1250;41122;-74
2022/08/10 13:07:05;;;;;;;1.60;1.00;;;;;26.42;97772.40;;;;110699;1250;42255;-74
2022/08/10 13:09:35;;;;;;;1.20;1.00;;;;;26.38;97766.20;;;;111023;1250;41972;-73
2022/08/10 13:12:24;;;;;;;0.90;0.90;;;;;25.90;97768.20;;;;111001;1250;41249;-73
2022/08/10 13:15:21;;;;;;;0.80;0.80;;;;;25.46;97770.20;;;;110708;1250;41264;-73
2022/08/10 13:18:11;;;;;;;1.00;0.80;;;;;25.42;97766.00;;;;110969;1250;41611;-73